VOE7QN DAAG-LFML
Flight info
| Callsign | VOE7QN |
|---|---|
| Flight time | 1h 11m |
| Altitude | 34000 |
| Route | PECES N853 LUMAS/N0407F300 UM976 SOSUR |
| Aircraft | A319/M-SDE3FGHIRWY/LB1 |
Departure
| Time | 2026-05-04 14:52 |
|---|---|
| Airport | Houari Boumediene Airport (DAAG) |
Arrival
| Time | 2026-05-04 16:03 |
|---|---|
| Airport | Marseille Provence Airport (LFML) |
| Time | Latitude | Longitude | Altitude | Speed | Heading |
|---|---|---|---|---|---|
| 2026-05-04 14:45 | 36.69715 | 3.20276 | 70 ft | 0 kts | 272° |
| 2026-05-04 14:46 | 36.69715 | 3.20294 | 60 ft | 3 kts | 276° |
| 2026-05-04 14:46 | 36.69713 | 3.20317 | 67 ft | 3 kts | 272° |
| 2026-05-04 14:46 | 36.69712 | 3.20340 | 66 ft | 3 kts | 272° |
| 2026-05-04 14:46 | 36.69717 | 3.20359 | 62 ft | 3 kts | 192° |
| 2026-05-04 14:47 | 36.69723 | 3.20361 | 62 ft | 0 kts | 182° |
| 2026-05-04 14:48 | 36.69720 | 3.20363 | 70 ft | 2 kts | 165° |
| 2026-05-04 14:48 | 36.69688 | 3.20371 | 70 ft | 8 kts | 175° |
| 2026-05-04 14:48 | 36.69614 | 3.20370 | 70 ft | 13 kts | 181° |
| 2026-05-04 14:49 | 36.69516 | 3.20365 | 70 ft | 15 kts | 182° |
| 2026-05-04 14:49 | 36.69444 | 3.20436 | 68 ft | 17 kts | 94° |
| 2026-05-04 14:49 | 36.69440 | 3.20591 | 70 ft | 18 kts | 92° |
| 2026-05-04 14:49 | 36.69437 | 3.20755 | 70 ft | 19 kts | 91° |
| 2026-05-04 14:50 | 36.69379 | 3.20884 | 69 ft | 19 kts | 161° |
| 2026-05-04 14:50 | 36.69251 | 3.20939 | 69 ft | 19 kts | 162° |
| 2026-05-04 14:50 | 36.69135 | 3.20952 | 76 ft | 12 kts | 201° |
| 2026-05-04 14:50 | 36.69116 | 3.20898 | 76 ft | 0 kts | 272° |
| 2026-05-04 14:51 | 36.69120 | 3.20707 | 76 ft | 61 kts | 272° |
| 2026-05-04 14:51 | 36.69140 | 3.19850 | 73 ft | 133 kts | 272° |
| 2026-05-04 14:51 | 36.69171 | 3.18486 | 298 ft | 166 kts | 275° |
| 2026-05-04 14:52 | 36.69211 | 3.17078 | 1026 ft | 165 kts | 274° |
| 2026-05-04 14:52 | 36.69269 | 3.15635 | 1708 ft | 168 kts | 277° |
| 2026-05-04 14:52 | 36.69501 | 3.14149 | 2152 ft | 185 kts | 289° |
| 2026-05-04 14:52 | 36.70034 | 3.12602 | 2497 ft | 207 kts | 301° |
| 2026-05-04 14:53 | 36.70940 | 3.11101 | 2892 ft | 227 kts | 314° |
| 2026-05-04 14:53 | 36.72253 | 3.09815 | 3334 ft | 253 kts | 329° |
| 2026-05-04 14:53 | 36.73958 | 3.08983 | 3971 ft | 273 kts | 347° |
| 2026-05-04 14:53 | 36.75886 | 3.08840 | 4872 ft | 284 kts | 6° |
| 2026-05-04 14:54 | 36.77815 | 3.09494 | 5740 ft | 292 kts | 26° |
| 2026-05-04 14:54 | 36.79503 | 3.10937 | 6619 ft | 298 kts | 46° |
| 2026-05-04 14:54 | 36.80907 | 3.12879 | 7477 ft | 304 kts | 50° |
| 2026-05-04 14:54 | 36.82323 | 3.14878 | 8346 ft | 311 kts | 49° |
| 2026-05-04 14:55 | 36.83759 | 3.16900 | 9210 ft | 317 kts | 47° |
| 2026-05-04 14:55 | 36.85245 | 3.18990 | 10065 ft | 324 kts | 46° |
| 2026-05-04 14:55 | 36.86789 | 3.21157 | 10518 ft | 346 kts | 46° |
| 2026-05-04 14:55 | 36.88437 | 3.23466 | 11020 ft | 362 kts | 46° |
| 2026-05-04 14:56 | 36.90128 | 3.25839 | 11783 ft | 369 kts | 46° |
| 2026-05-04 14:56 | 36.91851 | 3.28254 | 12587 ft | 374 kts | 46° |
| 2026-05-04 14:56 | 36.93759 | 3.30474 | 13371 ft | 376 kts | 33° |
| 2026-05-04 14:56 | 36.95987 | 3.32185 | 14126 ft | 377 kts | 21° |
| 2026-05-04 14:57 | 36.98438 | 3.33340 | 14776 ft | 377 kts | 12° |
| 2026-05-04 14:57 | 37.00933 | 3.34330 | 15478 ft | 381 kts | 12° |
| 2026-05-04 14:57 | 37.03480 | 3.35348 | 16180 ft | 386 kts | 12° |
| 2026-05-04 14:57 | 37.06055 | 3.36388 | 16886 ft | 390 kts | 13° |
| 2026-05-04 14:58 | 37.08645 | 3.37439 | 17585 ft | 394 kts | 13° |
| 2026-05-04 14:58 | 37.11270 | 3.38506 | 18273 ft | 398 kts | 13° |
| 2026-05-04 14:58 | 37.13919 | 3.39585 | 18874 ft | 402 kts | 13° |
| 2026-05-04 14:58 | 37.16559 | 3.40658 | 19486 ft | 405 kts | 13° |
| 2026-05-04 14:59 | 37.19254 | 3.41750 | 20135 ft | 408 kts | 13° |
| 2026-05-04 14:59 | 37.21969 | 3.42850 | 20741 ft | 412 kts | 13° |
| 2026-05-04 14:59 | 37.27466 | 3.45081 | 21970 ft | 418 kts | 13° |
| 2026-05-04 15:00 | 37.30250 | 3.46212 | 22575 ft | 421 kts | 13° |
| 2026-05-04 15:00 | 37.33053 | 3.47351 | 23173 ft | 425 kts | 13° |
| 2026-05-04 15:00 | 37.35879 | 3.48501 | 23732 ft | 428 kts | 13° |
| 2026-05-04 15:01 | 37.41547 | 3.50818 | 24687 ft | 434 kts | 13° |
| 2026-05-04 15:01 | 37.44439 | 3.52003 | 25176 ft | 437 kts | 14° |
| 2026-05-04 15:01 | 37.47341 | 3.53191 | 25624 ft | 441 kts | 14° |
| 2026-05-04 15:01 | 37.50269 | 3.54389 | 26063 ft | 444 kts | 14° |
| 2026-05-04 15:02 | 37.53221 | 3.55598 | 26525 ft | 447 kts | 14° |
| 2026-05-04 15:02 | 37.56187 | 3.56815 | 26950 ft | 450 kts | 14° |
| 2026-05-04 15:02 | 37.59173 | 3.58040 | 27384 ft | 452 kts | 14° |
| 2026-05-04 15:02 | 37.62142 | 3.59262 | 27806 ft | 455 kts | 14° |
| 2026-05-04 15:03 | 37.65172 | 3.60509 | 28226 ft | 458 kts | 14° |
| 2026-05-04 15:03 | 37.68220 | 3.61764 | 28644 ft | 462 kts | 14° |
| 2026-05-04 15:03 | 37.71294 | 3.63030 | 29025 ft | 466 kts | 14° |
| 2026-05-04 15:03 | 37.74385 | 3.64303 | 29432 ft | 469 kts | 14° |
| 2026-05-04 15:04 | 37.77497 | 3.65586 | 29836 ft | 472 kts | 14° |
| 2026-05-04 15:04 | 37.80626 | 3.66879 | 30207 ft | 474 kts | 14° |
| 2026-05-04 15:04 | 37.83773 | 3.68182 | 30544 ft | 477 kts | 14° |
| 2026-05-04 15:04 | 37.86939 | 3.69489 | 30881 ft | 479 kts | 14° |
| 2026-05-04 15:05 | 37.90127 | 3.70801 | 31235 ft | 482 kts | 14° |
| 2026-05-04 15:05 | 37.93292 | 3.72105 | 31486 ft | 486 kts | 14° |
| 2026-05-04 15:05 | 37.96517 | 3.73439 | 31783 ft | 489 kts | 14° |
| 2026-05-04 15:05 | 37.99748 | 3.74782 | 32227 ft | 488 kts | 14° |
| 2026-05-04 15:06 | 38.02983 | 3.76128 | 32675 ft | 487 kts | 14° |
| 2026-05-04 15:06 | 38.06212 | 3.77472 | 33125 ft | 487 kts | 14° |
| 2026-05-04 15:06 | 38.09430 | 3.78813 | 33584 ft | 486 kts | 13° |
| 2026-05-04 15:07 | 38.15800 | 3.81464 | 33989 ft | 477 kts | 13° |
| 2026-05-04 15:07 | 38.18914 | 3.82769 | 34002 ft | 466 kts | 13° |
| 2026-05-04 15:07 | 38.21981 | 3.84055 | 33994 ft | 462 kts | 13° |
| 2026-05-04 15:08 | 38.28086 | 3.86611 | 33996 ft | 461 kts | 13° |
| 2026-05-04 15:08 | 38.34193 | 3.89159 | 34000 ft | 460 kts | 13° |
| 2026-05-04 15:09 | 38.40246 | 3.91692 | 33993 ft | 460 kts | 13° |
| 2026-05-04 15:09 | 38.46343 | 3.94256 | 33994 ft | 460 kts | 13° |
| 2026-05-04 15:10 | 38.51497 | 3.95619 | 33993 ft | 452 kts | 2° |
| 2026-05-04 15:10 | 38.54614 | 3.96198 | 33992 ft | 452 kts | 2° |
| 2026-05-04 15:11 | 38.63969 | 3.97977 | 33993 ft | 453 kts | 2° |
| 2026-05-04 15:11 | 38.70174 | 3.99171 | 33978 ft | 453 kts | 2° |
| 2026-05-04 15:12 | 38.76425 | 4.00357 | 33976 ft | 453 kts | 2° |
| 2026-05-04 15:12 | 38.82634 | 4.01532 | 34003 ft | 453 kts | 2° |
| 2026-05-04 15:13 | 38.88889 | 4.02735 | 33993 ft | 454 kts | 2° |
| 2026-05-04 15:13 | 38.95141 | 4.03926 | 33988 ft | 453 kts | 2° |
| 2026-05-04 15:14 | 39.01347 | 4.05115 | 33983 ft | 453 kts | 2° |
| 2026-05-04 15:14 | 39.07595 | 4.06319 | 33996 ft | 454 kts | 2° |
| 2026-05-04 15:15 | 39.13849 | 4.07518 | 33989 ft | 454 kts | 2° |
| 2026-05-04 15:15 | 39.20100 | 4.08723 | 33979 ft | 454 kts | 2° |
| 2026-05-04 15:16 | 39.29490 | 4.10541 | 33991 ft | 454 kts | 2° |
| 2026-05-04 15:17 | 39.38858 | 4.12358 | 33961 ft | 456 kts | 2° |
| 2026-05-04 15:17 | 39.48286 | 4.14178 | 33949 ft | 457 kts | 2° |
| 2026-05-04 15:18 | 39.54551 | 4.15401 | 33965 ft | 458 kts | 2° |
| 2026-05-04 15:19 | 39.64030 | 4.17262 | 33956 ft | 459 kts | 2° |
| 2026-05-04 15:19 | 39.73531 | 4.19113 | 33970 ft | 460 kts | 2° |
| 2026-05-04 15:20 | 39.79835 | 4.20349 | 33954 ft | 460 kts | 2° |
| 2026-05-04 15:20 | 39.86181 | 4.21592 | 33959 ft | 460 kts | 2° |
| 2026-05-04 15:21 | 39.92473 | 4.22954 | 33961 ft | 462 kts | 4° |
| 2026-05-04 15:22 | 40.01973 | 4.25280 | 33975 ft | 462 kts | 4° |
| 2026-05-04 15:22 | 40.11429 | 4.27534 | 33945 ft | 462 kts | 3° |
| 2026-05-04 15:23 | 40.17770 | 4.29010 | 33952 ft | 462 kts | 3° |
| 2026-05-04 15:23 | 40.24080 | 4.30493 | 33942 ft | 463 kts | 3° |
| 2026-05-04 15:24 | 40.36777 | 4.33511 | 33935 ft | 463 kts | 3° |
| 2026-05-04 15:25 | 40.43092 | 4.35010 | 33942 ft | 463 kts | 4° |
| 2026-05-04 15:26 | 40.52627 | 4.37300 | 33920 ft | 465 kts | 4° |
| 2026-05-04 15:26 | 40.62190 | 4.39575 | 33919 ft | 466 kts | 4° |
| 2026-05-04 15:27 | 40.71743 | 4.41861 | 33921 ft | 466 kts | 4° |
| 2026-05-04 15:28 | 40.81327 | 4.44153 | 33926 ft | 466 kts | 4° |
| 2026-05-04 15:29 | 40.90883 | 4.46460 | 33928 ft | 467 kts | 4° |
| 2026-05-04 15:30 | 41.13277 | 4.51894 | 33929 ft | 468 kts | 4° |
| 2026-05-04 15:31 | 41.22899 | 4.54250 | 33925 ft | 469 kts | 4° |
| 2026-05-04 15:32 | 41.38898 | 4.58167 | 33907 ft | 468 kts | 4° |
| 2026-05-04 15:34 | 41.54941 | 4.62110 | 33933 ft | 468 kts | 4° |
| 2026-05-04 15:34 | 41.64516 | 4.64481 | 33928 ft | 468 kts | 4° |
| 2026-05-04 15:35 | 41.71073 | 4.66100 | 33938 ft | 487 kts | 4° |
| 2026-05-04 15:35 | 41.74404 | 4.67078 | 33932 ft | 495 kts | 11° |
| 2026-05-04 15:36 | 41.84325 | 4.71030 | 33940 ft | 498 kts | 11° |
| 2026-05-04 15:36 | 41.90968 | 4.73656 | 33945 ft | 497 kts | 11° |
| 2026-05-04 15:37 | 41.97558 | 4.76265 | 33943 ft | 496 kts | 11° |
| 2026-05-04 15:37 | 42.04178 | 4.78905 | 33942 ft | 495 kts | 11° |
| 2026-05-04 15:38 | 42.10787 | 4.81535 | 33958 ft | 495 kts | 11° |
| 2026-05-04 15:38 | 42.17390 | 4.84171 | 33958 ft | 494 kts | 11° |
| 2026-05-04 15:39 | 42.23974 | 4.86805 | 33949 ft | 493 kts | 11° |
| 2026-05-04 15:40 | 42.33834 | 4.90772 | 33966 ft | 492 kts | 11° |
| 2026-05-04 15:40 | 42.40363 | 4.93413 | 33968 ft | 491 kts | 11° |
| 2026-05-04 15:41 | 42.46868 | 4.96056 | 33772 ft | 476 kts | 11° |
| 2026-05-04 15:41 | 42.50010 | 4.97336 | 33046 ft | 468 kts | 11° |
| 2026-05-04 15:41 | 42.53100 | 4.98584 | 32398 ft | 459 kts | 12° |
| 2026-05-04 15:41 | 42.56152 | 4.99688 | 31706 ft | 447 kts | 4° |
| 2026-05-04 15:42 | 42.59198 | 5.00102 | 31009 ft | 436 kts | 359° |
| 2026-05-04 15:42 | 42.62203 | 5.00422 | 30325 ft | 431 kts | 360° |
| 2026-05-04 15:42 | 42.65137 | 5.00736 | 29608 ft | 426 kts | 0° |
| 2026-05-04 15:42 | 42.68077 | 5.01050 | 28878 ft | 420 kts | 0° |
| 2026-05-04 15:43 | 42.70980 | 5.01357 | 28186 ft | 415 kts | 0° |
| 2026-05-04 15:43 | 42.73839 | 5.01656 | 27510 ft | 409 kts | 0° |
| 2026-05-04 15:43 | 42.76668 | 5.01955 | 26842 ft | 404 kts | 0° |
| 2026-05-04 15:43 | 42.79449 | 5.02336 | 26173 ft | 401 kts | 7° |
| 2026-05-04 15:44 | 42.82073 | 5.03461 | 25542 ft | 401 kts | 23° |
| 2026-05-04 15:44 | 42.84564 | 5.05142 | 24874 ft | 397 kts | 24° |
| 2026-05-04 15:44 | 42.87019 | 5.06821 | 24224 ft | 392 kts | 24° |
| 2026-05-04 15:44 | 42.89438 | 5.08481 | 23585 ft | 387 kts | 24° |
| 2026-05-04 15:45 | 42.91835 | 5.10126 | 22876 ft | 383 kts | 23° |
| 2026-05-04 15:45 | 42.94304 | 5.11350 | 22128 ft | 374 kts | 8° |
| 2026-05-04 15:45 | 42.96864 | 5.11692 | 21426 ft | 364 kts | 353° |
| 2026-05-04 15:45 | 42.99377 | 5.11520 | 20725 ft | 360 kts | 353° |
| 2026-05-04 15:46 | 43.01840 | 5.11343 | 20066 ft | 357 kts | 353° |
| 2026-05-04 15:46 | 43.04344 | 5.11159 | 19434 ft | 354 kts | 353° |
| 2026-05-04 15:46 | 43.06765 | 5.10980 | 18815 ft | 351 kts | 354° |
| 2026-05-04 15:46 | 43.09206 | 5.10804 | 18207 ft | 349 kts | 354° |
| 2026-05-04 15:47 | 43.11624 | 5.10629 | 17545 ft | 346 kts | 354° |
| 2026-05-04 15:47 | 43.14018 | 5.10456 | 16868 ft | 345 kts | 353° |
| 2026-05-04 15:47 | 43.16415 | 5.10283 | 16246 ft | 342 kts | 354° |
| 2026-05-04 15:47 | 43.18777 | 5.10113 | 15621 ft | 340 kts | 353° |
| 2026-05-04 15:48 | 43.21106 | 5.09563 | 14752 ft | 340 kts | 336° |
| 2026-05-04 15:48 | 43.23320 | 5.08392 | 13919 ft | 343 kts | 333° |
| 2026-05-04 15:48 | 43.27718 | 5.05844 | 12388 ft | 339 kts | 333° |
| 2026-05-04 15:49 | 43.29873 | 5.04572 | 11708 ft | 335 kts | 333° |
| 2026-05-04 15:49 | 43.31973 | 5.03331 | 11049 ft | 331 kts | 332° |
| 2026-05-04 15:49 | 43.34010 | 5.01857 | 10391 ft | 322 kts | 321° |
| 2026-05-04 15:49 | 43.35758 | 5.00026 | 9743 ft | 318 kts | 318° |
| 2026-05-04 15:50 | 43.37487 | 4.98150 | 9035 ft | 314 kts | 318° |
| 2026-05-04 15:50 | 43.39183 | 4.96277 | 8341 ft | 310 kts | 318° |
| 2026-05-04 15:50 | 43.40838 | 4.94406 | 7675 ft | 306 kts | 317° |
| 2026-05-04 15:50 | 43.42494 | 4.92565 | 7009 ft | 304 kts | 317° |
| 2026-05-04 15:51 | 43.44123 | 4.90780 | 6359 ft | 301 kts | 318° |
| 2026-05-04 15:51 | 43.45741 | 4.88963 | 5799 ft | 298 kts | 317° |
| 2026-05-04 15:51 | 43.47338 | 4.87184 | 5558 ft | 290 kts | 318° |
| 2026-05-04 15:51 | 43.48861 | 4.85476 | 5427 ft | 276 kts | 317° |
| 2026-05-04 15:52 | 43.50309 | 4.83847 | 5318 ft | 263 kts | 318° |
| 2026-05-04 15:52 | 43.51695 | 4.82271 | 5187 ft | 253 kts | 318° |
| 2026-05-04 15:52 | 43.53022 | 4.80754 | 5050 ft | 243 kts | 319° |
| 2026-05-04 15:52 | 43.54484 | 4.79646 | 4766 ft | 240 kts | 345° |
| 2026-05-04 15:53 | 43.56117 | 4.79514 | 4431 ft | 234 kts | 14° |
| 2026-05-04 15:53 | 43.57580 | 4.80341 | 4134 ft | 223 kts | 42° |
| 2026-05-04 15:53 | 43.58602 | 4.81842 | 4006 ft | 210 kts | 66° |
| 2026-05-04 15:53 | 43.59310 | 4.83593 | 4006 ft | 210 kts | 68° |
| 2026-05-04 15:54 | 43.60026 | 4.85360 | 4006 ft | 211 kts | 68° |
| 2026-05-04 15:54 | 43.60744 | 4.87121 | 4008 ft | 211 kts | 68° |
| 2026-05-04 15:54 | 43.61467 | 4.88886 | 4007 ft | 210 kts | 68° |
| 2026-05-04 15:54 | 43.62174 | 4.90621 | 4008 ft | 210 kts | 69° |
| 2026-05-04 15:55 | 43.62580 | 4.92485 | 4004 ft | 198 kts | 94° |
| 2026-05-04 15:55 | 43.62363 | 4.94310 | 4008 ft | 190 kts | 117° |
| 2026-05-04 15:55 | 43.61641 | 4.95787 | 3998 ft | 183 kts | 135° |
| 2026-05-04 15:55 | 43.60795 | 4.96999 | 4024 ft | 169 kts | 135° |
| 2026-05-04 15:56 | 43.59991 | 4.98155 | 4009 ft | 165 kts | 135° |
| 2026-05-04 15:56 | 43.59197 | 4.99295 | 3989 ft | 165 kts | 135° |
| 2026-05-04 15:56 | 43.58403 | 5.00434 | 3852 ft | 164 kts | 135° |
| 2026-05-04 15:56 | 43.57621 | 5.01556 | 3665 ft | 160 kts | 134° |
| 2026-05-04 15:57 | 43.56872 | 5.02631 | 3465 ft | 150 kts | 134° |
| 2026-05-04 15:57 | 43.56172 | 5.03634 | 3276 ft | 142 kts | 133° |
| 2026-05-04 15:57 | 43.55723 | 5.04278 | 3155 ft | 139 kts | 133° |
| 2026-05-04 15:57 | 43.54844 | 5.05537 | 2912 ft | 136 kts | 133° |
| 2026-05-04 15:58 | 43.54207 | 5.06449 | 2733 ft | 128 kts | 132° |
| 2026-05-04 15:58 | 43.53601 | 5.07318 | 2567 ft | 124 kts | 132° |
| 2026-05-04 15:58 | 43.53025 | 5.08142 | 2411 ft | 116 kts | 131° |
| 2026-05-04 15:58 | 43.52474 | 5.08930 | 2252 ft | 110 kts | 131° |
| 2026-05-04 15:59 | 43.52114 | 5.09445 | 2156 ft | 113 kts | 131° |
| 2026-05-04 15:59 | 43.51562 | 5.10235 | 2011 ft | 116 kts | 132° |
| 2026-05-04 15:59 | 43.51011 | 5.11023 | 1851 ft | 115 kts | 133° |
| 2026-05-04 15:59 | 43.50455 | 5.11818 | 1704 ft | 115 kts | 133° |
| 2026-05-04 16:00 | 43.49899 | 5.12613 | 1538 ft | 115 kts | 133° |
| 2026-05-04 16:00 | 43.49346 | 5.13403 | 1381 ft | 114 kts | 133° |
| 2026-05-04 16:00 | 43.48793 | 5.14193 | 1224 ft | 115 kts | 133° |
| 2026-05-04 16:00 | 43.48237 | 5.14987 | 1069 ft | 115 kts | 133° |
| 2026-05-04 16:01 | 43.47682 | 5.15779 | 918 ft | 114 kts | 133° |
| 2026-05-04 16:01 | 43.47126 | 5.16573 | 756 ft | 116 kts | 132° |
| 2026-05-04 16:01 | 43.46567 | 5.17364 | 570 ft | 115 kts | 131° |
| 2026-05-04 16:01 | 43.46012 | 5.18154 | 415 ft | 114 kts | 131° |
| 2026-05-04 16:02 | 43.45466 | 5.18941 | 252 ft | 115 kts | 132° |
| 2026-05-04 16:02 | 43.44918 | 5.19718 | 88 ft | 112 kts | 132° |
| 2026-05-04 16:02 | 43.44005 | 5.21027 | 24 ft | 57 kts | 134° |
| 2026-05-04 16:03 | 43.43758 | 5.21381 | 36 ft | 47 kts | 134° |
| 2026-05-04 16:03 | 43.43550 | 5.21675 | 42 ft | 39 kts | 134° |
| 2026-05-04 16:03 | 43.43379 | 5.21919 | 49 ft | 32 kts | 133° |
| 2026-05-04 16:03 | 43.43333 | 5.22154 | 53 ft | 20 kts | 89° |
| 2026-05-04 16:04 | 43.43405 | 5.22279 | 53 ft | 19 kts | 4° |
| 2026-05-04 16:04 | 43.43658 | 5.22104 | 46 ft | 19 kts | 355° |
| 2026-05-04 16:04 | 43.43761 | 5.22025 | 43 ft | 18 kts | 356° |
| 2026-05-04 16:05 | 43.43856 | 5.22126 | 43 ft | 15 kts | 46° |
| 2026-05-04 16:05 | 43.43936 | 5.22111 | 41 ft | 15 kts | 311° |
| 2026-05-04 16:05 | 43.44012 | 5.22154 | 40 ft | 5 kts | 33° |
| 2026-05-04 16:06 | 43.44019 | 5.22161 | 40 ft | 0 kts | 34° |